sensor_id;sensor_type;location;lat;lon;timestamp;pressure;altitude;pressure_sealevel;temperature;humidity
19843;BME280;10082;51.038;6.992;2023-04-30T00:00:38;-17616.84;;;-144.33;100.00
19843;BME280;10082;51.038;6.992;2023-04-30T00:03:07;-17616.84;;;-144.33;100.00
19843;BME280;10082;51.038;6.992;2023-04-30T00:05:34;-17616.84;;;-144.33;100.00
19843;BME280;10082;51.038;6.992;2023-04-30T00:08:01;-17616.84;;;-144.33;100.00
19843;BME280;10082;51.038;6.992;2023-04-30T00:10:29;-17616.84;;;-144.33;100.00
19843;BME280;10082;51.038;6.992;2023-04-30T00:12:56;-17616.84;;;-144.33;100.00
19843;BME280;10082;51.038;6.992;2023-04-30T00:15:24;-17616.84;;;-144.33;100.00
19843;BME280;10082;51.038;6.992;2023-04-30T00:17:51;-17616.84;;;-144.33;100.00
19843;BME280;10082;51.038;6.992;2023-04-30T00:20:20;-17616.84;;;-144.33;100.00
19843;BME280;10082;51.038;6.992;2023-04-30T00:22:47;-17616.84;;;-144.33;100.00
19843;BME280;10082;51.038;6.992;2023-04-30T00:25:15;-17616.84;;;-144.33;100.00
19843;BME280;10082;51.038;6.992;2023-04-30T00:27:42;-17616.84;;;-144.33;100.00
19843;BME280;10082;51.038;6.992;2023-04-30T00:30:10;-17616.84;;;-144.33;100.00
19843;BME280;10082;51.038;6.992;2023-04-30T00:32:37;-17616.84;;;-144.33;100.00
19843;BME280;10082;51.038;6.992;2023-04-30T00:35:05;-17616.84;;;-144.33;100.00
19843;BME280;10082;51.038;6.992;2023-04-30T00:37:34;-17616.84;;;-144.33;100.00
19843;BME280;10082;51.038;6.992;2023-04-30T00:40:01;-17616.84;;;-144.33;100.00
19843;BME280;10082;51.038;6.992;2023-04-30T00:42:28;-17616.84;;;-144.33;100.00
19843;BME280;10082;51.038;6.992;2023-04-30T00:44:55;-17616.84;;;-144.33;100.00
19843;BME280;10082;51.038;6.992;2023-04-30T00:47:23;-17616.84;;;-144.33;100.00
19843;BME280;10082;51.038;6.992;2023-04-30T00:49:50;-17616.84;;;-144.33;100.00
19843;BME280;10082;51.038;6.992;2023-04-30T00:52:18;-17616.84;;;-144.33;100.00
19843;BME280;10082;51.038;6.992;2023-04-30T00:54:47;-17616.84;;;-144.33;100.00
19843;BME280;10082;51.038;6.992;2023-04-30T00:57:15;-17616.84;;;-144.33;100.00
19843;BME280;10082;51.038;6.992;2023-04-30T00:59:42;-17616.84;;;-144.33;100.00
19843;BME280;10082;51.038;6.992;2023-04-30T01:02:10;-17616.84;;;-144.33;100.00
19843;BME280;10082;51.038;6.992;2023-04-30T01:04:38;-17616.84;;;-144.33;100.00
19843;BME280;10082;51.038;6.992;2023-04-30T01:07:05;-17616.84;;;-144.33;100.00
19843;BME280;10082;51.038;6.992;2023-04-30T01:09:32;-17616.84;;;-144.33;100.00
19843;BME280;10082;51.038;6.992;2023-04-30T01:12:07;-17616.84;;;-144.33;100.00
19843;BME280;10082;51.038;6.992;2023-04-30T01:14:42;-17616.84;;;-144.33;100.00
19843;BME280;10082;51.038;6.992;2023-04-30T01:17:16;-17616.84;;;-144.33;100.00
19843;BME280;10082;51.038;6.992;2023-04-30T01:19:45;-17616.84;;;-144.33;100.00
19843;BME280;10082;51.038;6.992;2023-04-30T01:22:25;-17616.84;;;-144.33;100.00
19843;BME280;10082;51.038;6.992;2023-04-30T01:25:13;-17616.84;;;-144.33;100.00
19843;BME280;10082;51.038;6.992;2023-04-30T01:28:00;-17616.84;;;-144.33;100.00
19843;BME280;10082;51.038;6.992;2023-04-30T01:30:30;-17616.84;;;-144.33;100.00
19843;BME280;10082;51.038;6.992;2023-04-30T01:32:58;-17616.84;;;-144.33;100.00
19843;BME280;10082;51.038;6.992;2023-04-30T01:35:57;-17616.84;;;-144.33;100.00
19843;BME280;10082;51.038;6.992;2023-04-30T01:38:35;-17616.84;;;-144.33;100.00
19843;BME280;10082;51.038;6.992;2023-04-30T01:41:09;-17616.84;;;-144.33;100.00
19843;BME280;10082;51.038;6.992;2023-04-30T01:43:44;-17616.84;;;-144.33;100.00
19843;BME280;10082;51.038;6.992;2023-04-30T01:46:19;-17616.84;;;-144.33;100.00
19843;BME280;10082;51.038;6.992;2023-04-30T01:48:53;-17616.84;;;-144.33;100.00
19843;BME280;10082;51.038;6.992;2023-04-30T01:51:30;-17616.84;;;-144.33;100.00
19843;BME280;10082;51.038;6.992;2023-04-30T01:54:13;-17616.84;;;-144.33;100.00
19843;BME280;10082;51.038;6.992;2023-04-30T01:56:48;-17616.84;;;-144.33;100.00
19843;BME280;10082;51.038;6.992;2023-04-30T01:59:19;-17616.84;;;-144.33;100.00
19843;BME280;10082;51.038;6.992;2023-04-30T02:01:47;-17616.84;;;-144.33;100.00
19843;BME280;10082;51.038;6.992;2023-04-30T02:04:14;-17616.84;;;-144.33;100.00
19843;BME280;10082;51.038;6.992;2023-04-30T02:06:41;-17616.84;;;-144.33;100.00
19843;BME280;10082;51.038;6.992;2023-04-30T02:09:08;-17616.84;;;-144.33;100.00
19843;BME280;10082;51.038;6.992;2023-04-30T02:11:35;-17616.84;;;-144.33;100.00
19843;BME280;10082;51.038;6.992;2023-04-30T02:14:03;-17616.84;;;-144.33;100.00
19843;BME280;10082;51.038;6.992;2023-04-30T02:16:32;-17616.84;;;-144.33;100.00
19843;BME280;10082;51.038;6.992;2023-04-30T02:19:00;-17616.84;;;-144.33;100.00
19843;BME280;10082;51.038;6.992;2023-04-30T02:21:27;-17616.84;;;-144.33;100.00
19843;BME280;10082;51.038;6.992;2023-04-30T02:23:54;-17616.84;;;-144.33;100.00
19843;BME280;10082;51.038;6.992;2023-04-30T02:26:21;-17616.84;;;-144.33;100.00
19843;BME280;10082;51.038;6.992;2023-04-30T02:28:49;-17616.84;;;-144.33;100.00
19843;BME280;10082;51.038;6.992;2023-04-30T02:31:16;-17616.84;;;-144.33;100.00
19843;BME280;10082;51.038;6.992;2023-04-30T02:33:46;-17616.84;;;-144.33;100.00
19843;BME280;10082;51.038;6.992;2023-04-30T02:36:15;-17616.84;;;-144.33;100.00
19843;BME280;10082;51.038;6.992;2023-04-30T02:38:43;-17616.84;;;-144.33;100.00
19843;BME280;10082;51.038;6.992;2023-04-30T02:41:10;-17616.84;;;-144.33;100.00
19843;BME280;10082;51.038;6.992;2023-04-30T02:43:38;-17616.84;;;-144.33;100.00
19843;BME280;10082;51.038;6.992;2023-04-30T02:46:05;-17616.84;;;-144.33;100.00
19843;BME280;10082;51.038;6.992;2023-04-30T02:48:32;-17616.84;;;-144.33;100.00
19843;BME280;10082;51.038;6.992;2023-04-30T02:51:01;-17616.84;;;-144.33;100.00
19843;BME280;10082;51.038;6.992;2023-04-30T02:53:29;-17616.84;;;-144.33;100.00
19843;BME280;10082;51.038;6.992;2023-04-30T02:55:56;-17616.84;;;-144.33;100.00
19843;BME280;10082;51.038;6.992;2023-04-30T02:58:23;-17616.84;;;-144.33;100.00
19843;BME280;10082;51.038;6.992;2023-04-30T03:00:51;-17616.84;;;-144.33;100.00
19843;BME280;10082;51.038;6.992;2023-04-30T03:03:18;-17616.84;;;-144.33;100.00
19843;BME280;10082;51.038;6.992;2023-04-30T03:05:45;-17616.84;;;-144.33;100.00
19843;BME280;10082;51.038;6.992;2023-04-30T03:08:13;-17616.84;;;-144.33;100.00
19843;BME280;10082;51.038;6.992;2023-04-30T03:10:41;-17616.84;;;-144.33;100.00
19843;BME280;10082;51.038;6.992;2023-04-30T03:13:08;-17616.84;;;-144.33;100.00
19843;BME280;10082;51.038;6.992;2023-04-30T03:15:35;-17616.84;;;-144.33;100.00
19843;BME280;10082;51.038;6.992;2023-04-30T03:18:03;-17616.84;;;-144.33;100.00
19843;BME280;10082;51.038;6.992;2023-04-30T03:20:30;-17616.84;;;-144.33;100.00
19843;BME280;10082;51.038;6.992;2023-04-30T03:22:57;-17616.84;;;-144.33;100.00
19843;BME280;10082;51.038;6.992;2023-04-30T03:25:27;-17616.84;;;-144.33;100.00
19843;BME280;10082;51.038;6.992;2023-04-30T03:27:55;-17616.84;;;-144.33;100.00
19843;BME280;10082;51.038;6.992;2023-04-30T03:30:24;-17616.84;;;-144.33;100.00
19843;BME280;10082;51.038;6.992;2023-04-30T03:32:51;-17616.84;;;-144.33;100.00
19843;BME280;10082;51.038;6.992;2023-04-30T03:35:18;-17616.84;;;-144.33;100.00
19843;BME280;10082;51.038;6.992;2023-04-30T03:37:45;-17616.84;;;-144.33;100.00
19843;BME280;10082;51.038;6.992;2023-04-30T03:40:13;-17616.84;;;-144.33;100.00
19843;BME280;10082;51.038;6.992;2023-04-30T03:42:42;-17616.84;;;-144.33;100.00
19843;BME280;10082;51.038;6.992;2023-04-30T03:45:09;-17616.84;;;-144.33;100.00
19843;BME280;10082;51.038;6.992;2023-04-30T03:47:36;-17616.84;;;-144.33;100.00
19843;BME280;10082;51.038;6.992;2023-04-30T03:50:05;-17616.84;;;-144.33;100.00
19843;BME280;10082;51.038;6.992;2023-04-30T03:52:32;-17616.84;;;-144.33;100.00
19843;BME280;10082;51.038;6.992;2023-04-30T03:55:03;-17616.84;;;-144.33;100.00
19843;BME280;10082;51.038;6.992;2023-04-30T03:57:30;-17616.84;;;-144.33;100.00
19843;BME280;10082;51.038;6.992;2023-04-30T03:59:59;-17616.84;;;-144.33;100.00
19843;BME280;10082;51.038;6.992;2023-04-30T04:02:38;-17616.84;;;-144.33;100.00
19843;BME280;10082;51.038;6.992;2023-04-30T04:05:09;-17616.84;;;-144.33;100.00
19843;BME280;10082;51.038;6.992;2023-04-30T04:07:36;-17616.84;;;-144.33;100.00
19843;BME280;10082;51.038;6.992;2023-04-30T04:10:03;-17616.84;;;-144.33;100.00
19843;BME280;10082;51.038;6.992;2023-04-30T04:12:31;-17616.84;;;-144.33;100.00
19843;BME280;10082;51.038;6.992;2023-04-30T04:14:59;-17616.84;;;-144.33;100.00
19843;BME280;10082;51.038;6.992;2023-04-30T04:17:27;-17616.84;;;-144.33;100.00
19843;BME280;10082;51.038;6.992;2023-04-30T04:19:55;-17616.84;;;-144.33;100.00
19843;BME280;10082;51.038;6.992;2023-04-30T04:22:24;-17616.84;;;-144.33;100.00
19843;BME280;10082;51.038;6.992;2023-04-30T04:24:52;-17616.84;;;-144.33;100.00
19843;BME280;10082;51.038;6.992;2023-04-30T04:27:21;-17616.84;;;-144.33;100.00
19843;BME280;10082;51.038;6.992;2023-04-30T04:29:49;-17616.84;;;-144.33;100.00
19843;BME280;10082;51.038;6.992;2023-04-30T04:32:18;-17616.84;;;-144.33;100.00
19843;BME280;10082;51.038;6.992;2023-04-30T04:34:51;-17616.84;;;-144.33;100.00
19843;BME280;10082;51.038;6.992;2023-04-30T04:37:21;-17616.84;;;-144.33;100.00
19843;BME280;10082;51.038;6.992;2023-04-30T04:39:49;-17616.84;;;-144.33;100.00
19843;BME280;10082;51.038;6.992;2023-04-30T04:42:16;-17616.84;;;-144.33;100.00
19843;BME280;10082;51.038;6.992;2023-04-30T04:44:44;-17616.84;;;-144.33;100.00
19843;BME280;10082;51.038;6.992;2023-04-30T04:47:11;-17616.84;;;-144.33;100.00
19843;BME280;10082;51.038;6.992;2023-04-30T04:49:43;-17616.84;;;-144.33;100.00
19843;BME280;10082;51.038;6.992;2023-04-30T04:52:10;-17616.84;;;-144.33;100.00
19843;BME280;10082;51.038;6.992;2023-04-30T04:54:37;-17616.84;;;-144.33;100.00
19843;BME280;10082;51.038;6.992;2023-04-30T04:57:04;-17616.84;;;-144.33;100.00
19843;BME280;10082;51.038;6.992;2023-04-30T04:59:32;-17616.84;;;-144.33;100.00
19843;BME280;10082;51.038;6.992;2023-04-30T05:01:59;-17616.84;;;-144.33;100.00
19843;BME280;10082;51.038;6.992;2023-04-30T05:04:26;-17616.84;;;-144.33;100.00
19843;BME280;10082;51.038;6.992;2023-04-30T05:06:56;-17616.84;;;-144.33;100.00
19843;BME280;10082;51.038;6.992;2023-04-30T05:09:23;-17616.84;;;-144.33;100.00
19843;BME280;10082;51.038;6.992;2023-04-30T05:11:50;-17616.84;;;-144.33;100.00
19843;BME280;10082;51.038;6.992;2023-04-30T05:14:23;-17616.84;;;-144.33;100.00
19843;BME280;10082;51.038;6.992;2023-04-30T05:16:50;-17616.84;;;-144.33;100.00
19843;BME280;10082;51.038;6.992;2023-04-30T05:19:18;-17616.84;;;-144.33;100.00
19843;BME280;10082;51.038;6.992;2023-04-30T05:21:46;-17616.84;;;-144.33;100.00
19843;BME280;10082;51.038;6.992;2023-04-30T05:24:15;-17616.84;;;-144.33;100.00
19843;BME280;10082;51.038;6.992;2023-04-30T05:26:42;-17616.84;;;-144.33;100.00
19843;BME280;10082;51.038;6.992;2023-04-30T05:29:09;-17616.84;;;-144.33;100.00
19843;BME280;10082;51.038;6.992;2023-04-30T05:31:36;-17616.84;;;-144.33;100.00
19843;BME280;10082;51.038;6.992;2023-04-30T05:34:03;-17616.84;;;-144.33;100.00
19843;BME280;10082;51.038;6.992;2023-04-30T05:36:31;-17616.84;;;-144.33;100.00
19843;BME280;10082;51.038;6.992;2023-04-30T05:38:58;-17616.84;;;-144.33;100.00
19843;BME280;10082;51.038;6.992;2023-04-30T05:41:26;-17616.84;;;-144.33;100.00
19843;BME280;10082;51.038;6.992;2023-04-30T05:43:53;-17616.84;;;-144.33;100.00
19843;BME280;10082;51.038;6.992;2023-04-30T05:46:20;-17616.84;;;-144.33;100.00
19843;BME280;10082;51.038;6.992;2023-04-30T05:48:47;-17616.84;;;-144.33;100.00
19843;BME280;10082;51.038;6.992;2023-04-30T05:51:15;-17616.84;;;-144.33;100.00
19843;BME280;10082;51.038;6.992;2023-04-30T05:53:42;-17616.84;;;-144.33;100.00
19843;BME280;10082;51.038;6.992;2023-04-30T05:56:09;-17616.84;;;-144.33;100.00
19843;BME280;10082;51.038;6.992;2023-04-30T05:58:38;-17616.84;;;-144.33;100.00
19843;BME280;10082;51.038;6.992;2023-04-30T06:01:05;-17616.84;;;-144.33;100.00
19843;BME280;10082;51.038;6.992;2023-04-30T06:03:35;-17616.84;;;-144.33;100.00
19843;BME280;10082;51.038;6.992;2023-04-30T06:06:03;-17616.84;;;-144.33;100.00
19843;BME280;10082;51.038;6.992;2023-04-30T06:08:30;-17616.84;;;-144.33;100.00
19843;BME280;10082;51.038;6.992;2023-04-30T06:10:58;-17616.84;;;-144.33;100.00
19843;BME280;10082;51.038;6.992;2023-04-30T06:13:25;-17616.84;;;-144.33;100.00
19843;BME280;10082;51.038;6.992;2023-04-30T06:15:54;-17616.84;;;-144.33;100.00
19843;BME280;10082;51.038;6.992;2023-04-30T06:18:21;-17616.84;;;-144.33;100.00
19843;BME280;10082;51.038;6.992;2023-04-30T06:20:48;-17616.84;;;-144.33;100.00
19843;BME280;10082;51.038;6.992;2023-04-30T06:23:15;-17616.84;;;-144.33;100.00
19843;BME280;10082;51.038;6.992;2023-04-30T06:25:42;-17616.84;;;-144.33;100.00
19843;BME280;10082;51.038;6.992;2023-04-30T06:28:09;-17616.84;;;-144.33;100.00
19843;BME280;10082;51.038;6.992;2023-04-30T06:30:37;-17616.84;;;-144.33;100.00
19843;BME280;10082;51.038;6.992;2023-04-30T06:33:05;-17616.84;;;-144.33;100.00
19843;BME280;10082;51.038;6.992;2023-04-30T06:35:32;-17616.84;;;-144.33;100.00
19843;BME280;10082;51.038;6.992;2023-04-30T06:38:00;-17616.84;;;-144.33;100.00
19843;BME280;10082;51.038;6.992;2023-04-30T06:40:27;-15121.31;;;-144.33;100.00
19843;BME280;10082;51.038;6.992;2023-04-30T06:42:54;-7879.31;;;-144.33;100.00
19843;BME280;10082;51.038;6.992;2023-04-30T06:45:22;-5629.00;;;-144.33;100.00
19843;BME280;10082;51.038;6.992;2023-04-30T06:47:49;1863.94;;;-144.33;100.00
19843;BME280;10082;51.038;6.992;2023-04-30T06:50:19;37656.00;;;-144.33;100.00
19843;BME280;10082;51.038;6.992;2023-04-30T06:52:47;54512.47;;;-144.33;100.00
19843;BME280;10082;51.038;6.992;2023-04-30T06:55:14;75671.88;;;-144.33;100.00
19843;BME280;10082;51.038;6.992;2023-04-30T06:57:41;96676.97;;;-144.33;100.00
19843;BME280;10082;51.038;6.992;2023-04-30T07:00:09;112171.53;;;-144.33;100.00
19843;BME280;10082;51.038;6.992;2023-04-30T07:02:36;112171.53;;;-144.33;100.00
19843;BME280;10082;51.038;6.992;2023-04-30T07:05:04;112171.53;;;-144.33;100.00
19843;BME280;10082;51.038;6.992;2023-04-30T07:07:33;112171.53;;;-144.33;93.56
19843;BME280;10082;51.038;6.992;2023-04-30T07:10:00;112171.53;;;-144.33;82.76
19843;BME280;10082;51.038;6.992;2023-04-30T07:12:27;112171.53;;;-144.33;80.27
19843;BME280;10082;51.038;6.992;2023-04-30T07:14:54;112171.53;;;-144.33;75.13
19843;BME280;10082;51.038;6.992;2023-04-30T07:17:21;112171.53;;;-144.33;73.75
19843;BME280;10082;51.038;6.992;2023-04-30T07:19:48;112171.53;;;-144.33;79.51
19843;BME280;10082;51.038;6.992;2023-04-30T07:22:15;112171.53;;;-144.33;74.25
19843;BME280;10082;51.038;6.992;2023-04-30T07:24:44;112171.53;;;-144.33;76.81
19843;BME280;10082;51.038;6.992;2023-04-30T07:27:11;112171.53;;;-144.33;75.50
19843;BME280;10082;51.038;6.992;2023-04-30T07:29:38;112171.53;;;-144.33;72.72
19843;BME280;10082;51.038;6.992;2023-04-30T07:32:05;112171.53;;;-144.33;70.07
19843;BME280;10082;51.038;6.992;2023-04-30T07:34:41;112171.53;;;-144.33;66.44
19843;BME280;10082;51.038;6.992;2023-04-30T07:37:08;112171.53;;;-144.33;65.89
19843;BME280;10082;51.038;6.992;2023-04-30T07:39:36;112171.53;;;-144.33;65.02
19843;BME280;10082;51.038;6.992;2023-04-30T07:42:05;112171.53;;;-144.33;74.01
19843;BME280;10082;51.038;6.992;2023-04-30T07:44:32;112171.53;;;-144.33;77.53
19843;BME280;10082;51.038;6.992;2023-04-30T07:47:00;112171.53;;;-144.33;77.99
19843;BME280;10082;51.038;6.992;2023-04-30T07:49:27;112171.53;;;-144.33;74.36
19843;BME280;10082;51.038;6.992;2023-04-30T07:51:54;112171.53;;;-144.33;70.50
19843;BME280;10082;51.038;6.992;2023-04-30T07:54:22;112171.53;;;-144.33;65.60
19843;BME280;10082;51.038;6.992;2023-04-30T07:56:49;112171.53;;;-144.33;65.35
19843;BME280;10082;51.038;6.992;2023-04-30T07:59:18;112171.53;;;-144.33;63.74
19843;BME280;10082;51.038;6.992;2023-04-30T08:01:45;112171.53;;;-144.33;64.92
19843;BME280;10082;51.038;6.992;2023-04-30T08:04:12;112171.53;;;-144.33;68.04
19843;BME280;10082;51.038;6.992;2023-04-30T08:06:39;112171.53;;;-144.33;64.04
19843;BME280;10082;51.038;6.992;2023-04-30T08:09:07;112171.53;;;-144.33;58.21
19843;BME280;10082;51.038;6.992;2023-04-30T08:11:34;112171.53;;;-144.33;57.34
19843;BME280;10082;51.038;6.992;2023-04-30T08:14:01;112171.53;;;-144.33;52.95
19843;BME280;10082;51.038;6.992;2023-04-30T08:16:30;112171.53;;;-144.33;52.48
19843;BME280;10082;51.038;6.992;2023-04-30T08:18:57;112171.53;;;-144.33;59.41
19843;BME280;10082;51.038;6.992;2023-04-30T08:21:25;112171.53;;;-144.33;58.33
19843;BME280;10082;51.038;6.992;2023-04-30T08:23:52;112171.53;;;-144.33;56.64
19843;BME280;10082;51.038;6.992;2023-04-30T08:26:19;112171.53;;;-144.33;54.87
19843;BME280;10082;51.038;6.992;2023-04-30T08:28:47;112171.53;;;-144.33;54.40
19843;BME280;10082;51.038;6.992;2023-04-30T08:31:15;112171.53;;;-144.33;50.72
19843;BME280;10082;51.038;6.992;2023-04-30T08:33:44;112171.53;;;-144.33;51.51
19843;BME280;10082;51.038;6.992;2023-04-30T08:36:11;112171.53;;;-144.33;46.65
19843;BME280;10082;51.038;6.992;2023-04-30T08:38:38;112171.53;;;-144.33;50.92
19843;BME280;10082;51.038;6.992;2023-04-30T08:44:28;112171.53;;;-144.33;55.55
19843;BME280;10082;51.038;6.992;2023-04-30T08:46:56;112171.53;;;-144.33;49.37
19843;BME280;10082;51.038;6.992;2023-04-30T08:49:25;112171.53;;;-144.33;52.09
19843;BME280;10082;51.038;6.992;2023-04-30T08:51:52;112171.53;;;-144.33;49.08
19843;BME280;10082;51.038;6.992;2023-04-30T08:54:19;112171.53;;;-144.33;44.32
19843;BME280;10082;51.038;6.992;2023-04-30T08:56:48;112171.53;;;-144.33;46.85
19843;BME280;10082;51.038;6.992;2023-04-30T08:59:16;112171.53;;;-144.33;44.62
19843;BME280;10082;51.038;6.992;2023-04-30T09:01:43;112171.53;;;-144.33;40.36
19843;BME280;10082;51.038;6.992;2023-04-30T09:04:10;112171.53;;;-144.33;38.76
19843;BME280;10082;51.038;6.992;2023-04-30T09:06:39;112171.53;;;-144.33;36.21
19843;BME280;10082;51.038;6.992;2023-04-30T09:09:11;112171.53;;;-144.33;36.25
19843;BME280;10082;51.038;6.992;2023-04-30T09:11:39;112171.53;;;-144.33;38.88
19843;BME280;10082;51.038;6.992;2023-04-30T09:14:07;112171.53;;;-144.33;36.24
19843;BME280;10082;51.038;6.992;2023-04-30T09:16:45;112171.53;;;-144.33;37.34
19843;BME280;10082;51.038;6.992;2023-04-30T09:19:23;112171.53;;;-144.33;34.42
19843;BME280;10082;51.038;6.992;2023-04-30T09:21:52;112171.53;;;-144.33;37.01
19843;BME280;10082;51.038;6.992;2023-04-30T09:24:19;112171.53;;;-144.33;38.63
19843;BME280;10082;51.038;6.992;2023-04-30T09:26:47;112171.53;;;-144.33;37.49
19843;BME280;10082;51.038;6.992;2023-04-30T09:29:14;112171.53;;;-144.33;36.06
19843;BME280;10082;51.038;6.992;2023-04-30T09:31:43;112171.53;;;-144.33;35.32
19843;BME280;10082;51.038;6.992;2023-04-30T09:34:11;112171.53;;;-144.33;35.37
19843;BME280;10082;51.038;6.992;2023-04-30T09:36:52;112171.53;;;-144.33;35.07
19843;BME280;10082;51.038;6.992;2023-04-30T09:39:20;112171.53;;;-144.33;33.19
19843;BME280;10082;51.038;6.992;2023-04-30T09:41:49;112171.53;;;-144.33;33.60
19843;BME280;10082;51.038;6.992;2023-04-30T09:44:26;112171.53;;;-144.33;36.45
19843;BME280;10082;51.038;6.992;2023-04-30T09:46:59;112171.53;;;-144.33;35.69
19843;BME280;10082;51.038;6.992;2023-04-30T09:49:26;112171.53;;;-144.33;35.82
19843;BME280;10082;51.038;6.992;2023-04-30T09:51:55;112171.53;;;-144.33;36.16
19843;BME280;10082;51.038;6.992;2023-04-30T09:54:24;112171.53;;;-144.33;33.54
19843;BME280;10082;51.038;6.992;2023-04-30T09:56:53;112171.53;;;-144.33;34.33
19843;BME280;10082;51.038;6.992;2023-04-30T09:59:26;112171.53;;;-144.33;33.74
19843;BME280;10082;51.038;6.992;2023-04-30T10:01:57;112171.53;;;-144.33;32.60
19843;BME280;10082;51.038;6.992;2023-04-30T10:04:25;112171.53;;;-144.33;33.68
19843;BME280;10082;51.038;6.992;2023-04-30T10:06:56;112171.53;;;-144.33;35.88
19843;BME280;10082;51.038;6.992;2023-04-30T10:09:26;112171.53;;;-144.33;36.42
19843;BME280;10082;51.038;6.992;2023-04-30T10:11:55;112171.53;;;-144.33;36.39
19843;BME280;10082;51.038;6.992;2023-04-30T10:14:26;112171.53;;;-144.33;36.66
19843;BME280;10082;51.038;6.992;2023-04-30T10:17:04;112171.53;;;-144.33;38.10
19843;BME280;10082;51.038;6.992;2023-04-30T10:19:38;112171.53;;;-144.33;39.21
19843;BME280;10082;51.038;6.992;2023-04-30T10:22:08;112171.53;;;-144.33;39.75
19843;BME280;10082;51.038;6.992;2023-04-30T10:24:37;112171.53;;;-144.33;40.67
19843;BME280;10082;51.038;6.992;2023-04-30T10:27:04;112171.53;;;-144.33;39.69
19843;BME280;10082;51.038;6.992;2023-04-30T10:29:31;112171.53;;;-144.33;40.54
19843;BME280;10082;51.038;6.992;2023-04-30T10:31:59;112171.53;;;-144.33;41.62
19843;BME280;10082;51.038;6.992;2023-04-30T10:34:37;112171.53;;;-144.33;40.41
19843;BME280;10082;51.038;6.992;2023-04-30T10:37:16;112171.53;;;-144.33;39.81
19843;BME280;10082;51.038;6.992;2023-04-30T10:39:49;112171.53;;;-144.33;37.14
19843;BME280;10082;51.038;6.992;2023-04-30T10:42:16;112171.53;;;-144.33;35.01
19843;BME280;10082;51.038;6.992;2023-04-30T10:44:44;112171.53;;;-144.33;36.23
19843;BME280;10082;51.038;6.992;2023-04-30T10:47:11;112171.53;;;-144.33;36.95
19843;BME280;10082;51.038;6.992;2023-04-30T10:49:38;112171.53;;;-144.33;35.03
19843;BME280;10082;51.038;6.992;2023-04-30T10:52:10;112171.53;;;-144.33;33.04
19843;BME280;10082;51.038;6.992;2023-04-30T10:54:38;112171.53;;;-144.33;33.31
19843;BME280;10082;51.038;6.992;2023-04-30T10:57:09;112171.53;;;-144.33;32.91
19843;BME280;10082;51.038;6.992;2023-04-30T10:59:37;112171.53;;;-144.33;33.78
19843;BME280;10082;51.038;6.992;2023-04-30T11:02:04;112171.53;;;-144.33;33.13
19843;BME280;10082;51.038;6.992;2023-04-30T11:04:32;112171.53;;;-144.33;33.84
19843;BME280;10082;51.038;6.992;2023-04-30T11:07:01;112171.53;;;-144.33;34.86
19843;BME280;10082;51.038;6.992;2023-04-30T11:09:39;112171.53;;;-144.33;34.96
19843;BME280;10082;51.038;6.992;2023-04-30T11:12:12;112171.53;;;-144.33;34.86
19843;BME280;10082;51.038;6.992;2023-04-30T11:14:40;112171.53;;;-144.33;34.09
19843;BME280;10082;51.038;6.992;2023-04-30T11:17:09;112171.53;;;-144.33;32.46
19843;BME280;10082;51.038;6.992;2023-04-30T11:19:45;112171.53;;;-144.33;33.32
19843;BME280;10082;51.038;6.992;2023-04-30T11:22:21;112171.53;;;-144.33;33.70
19843;BME280;10082;51.038;6.992;2023-04-30T11:25:04;112171.53;;;-144.33;34.93
19843;BME280;10082;51.038;6.992;2023-04-30T11:27:35;112171.53;;;-144.33;34.17
19843;BME280;10082;51.038;6.992;2023-04-30T11:30:03;112171.53;;;-144.33;32.78
19843;BME280;10082;51.038;6.992;2023-04-30T11:32:37;112171.53;;;-144.33;32.85
19843;BME280;10082;51.038;6.992;2023-04-30T11:35:06;112171.53;;;-144.33;33.92
19843;BME280;10082;51.038;6.992;2023-04-30T11:37:35;112171.53;;;-144.33;33.70
19843;BME280;10082;51.038;6.992;2023-04-30T11:40:05;112171.53;;;-144.33;32.38
19843;BME280;10082;51.038;6.992;2023-04-30T11:42:34;112171.53;;;-144.33;32.19
19843;BME280;10082;51.038;6.992;2023-04-30T11:45:06;112171.53;;;-144.33;33.16
19843;BME280;10082;51.038;6.992;2023-04-30T11:47:41;112171.53;;;-144.33;32.31
19843;BME280;10082;51.038;6.992;2023-04-30T11:50:10;112171.53;;;-144.33;31.36
19843;BME280;10082;51.038;6.992;2023-04-30T11:52:40;112171.53;;;-144.33;30.45
19843;BME280;10082;51.038;6.992;2023-04-30T11:55:16;112171.53;;;-144.33;29.00
19843;BME280;10082;51.038;6.992;2023-04-30T11:57:44;112171.53;;;-144.33;27.91
19843;BME280;10082;51.038;6.992;2023-04-30T12:00:13;112171.53;;;-144.33;28.33
19843;BME280;10082;51.038;6.992;2023-04-30T12:02:42;112171.53;;;-144.33;28.88
19843;BME280;10082;51.038;6.992;2023-04-30T12:05:14;112171.53;;;-144.33;30.63
19843;BME280;10082;51.038;6.992;2023-04-30T12:07:49;112171.53;;;-144.33;30.30
19843;BME280;10082;51.038;6.992;2023-04-30T12:10:19;112171.53;;;-144.33;30.13
19843;BME280;10082;51.038;6.992;2023-04-30T12:12:48;112171.53;;;-144.33;30.59
19843;BME280;10082;51.038;6.992;2023-04-30T12:15:16;112171.53;;;-144.33;30.82
19843;BME280;10082;51.038;6.992;2023-04-30T12:17:45;112171.53;;;-144.33;29.67
19843;BME280;10082;51.038;6.992;2023-04-30T12:20:13;112171.53;;;-144.33;28.72
19843;BME280;10082;51.038;6.992;2023-04-30T12:22:41;112171.53;;;-144.33;30.02
19843;BME280;10082;51.038;6.992;2023-04-30T12:25:11;112171.53;;;-144.33;28.46
19843;BME280;10082;51.038;6.992;2023-04-30T12:27:44;112171.53;;;-144.33;28.58
19843;BME280;10082;51.038;6.992;2023-04-30T12:30:12;112171.53;;;-144.33;28.85
19843;BME280;10082;51.038;6.992;2023-04-30T12:32:40;112171.53;;;-144.33;30.18
19843;BME280;10082;51.038;6.992;2023-04-30T12:35:13;112171.53;;;-144.33;30.58
19843;BME280;10082;51.038;6.992;2023-04-30T12:37:43;112171.53;;;-144.33;30.41